sensor_id;sensor_type;location;lat;lon;timestamp;pressure;altitude;pressure_sealevel;temperature
70969;BMP280;58630;43.022;25.100;2022-09-03T00:02:43;99257.75;;;23.53
70969;BMP280;58630;43.022;25.100;2022-09-03T00:05:12;99263.06;;;23.53
70969;BMP280;58630;43.022;25.100;2022-09-03T00:07:42;99264.16;;;23.52
70969;BMP280;58630;43.022;25.100;2022-09-03T00:10:12;99269.09;;;23.50
70969;BMP280;58630;43.022;25.100;2022-09-03T00:12:39;99267.53;;;23.49
70969;BMP280;58630;43.022;25.100;2022-09-03T00:15:07;99263.34;;;23.48
70969;BMP280;58630;43.022;25.100;2022-09-03T00:17:37;99267.09;;;23.47
70969;BMP280;58630;43.022;25.100;2022-09-03T00:20:16;99264.44;;;23.47
70969;BMP280;58630;43.022;25.100;2022-09-03T00:22:46;99268.25;;;23.46
70969;BMP280;58630;43.022;25.100;2022-09-03T00:25:17;99263.69;;;23.46
70969;BMP280;58630;43.022;25.100;2022-09-03T00:27:44;99257.94;;;23.44
70969;BMP280;58630;43.022;25.100;2022-09-03T00:30:13;99266.28;;;23.43
70969;BMP280;58630;43.022;25.100;2022-09-03T00:35:48;99259.06;;;23.43
70969;BMP280;58630;43.022;25.100;2022-09-03T00:38:15;99265.84;;;23.41
70969;BMP280;58630;43.022;25.100;2022-09-03T01:01:21;99276.31;;;23.34
70969;BMP280;58630;43.022;25.100;2022-09-03T01:04:11;99277.41;;;23.33
70969;BMP280;58630;43.022;25.100;2022-09-03T01:06:44;99274.03;;;23.32
70969;BMP280;58630;43.022;25.100;2022-09-03T01:17:23;99277.69;;;23.28
70969;BMP280;58630;43.022;25.100;2022-09-03T01:19:57;99271.97;;;23.26
70969;BMP280;58630;43.022;25.100;2022-09-03T01:25:21;99273.09;;;23.25
70969;BMP280;58630;43.022;25.100;2022-09-03T01:30:41;99291.31;;;23.27
70969;BMP280;58630;43.022;25.100;2022-09-03T01:33:19;99292.75;;;23.24
70969;BMP280;58630;43.022;25.100;2022-09-03T01:35:47;99292.75;;;23.24
70969;BMP280;58630;43.022;25.100;2022-09-03T01:38:23;99301.81;;;23.23
70969;BMP280;58630;43.022;25.100;2022-09-03T01:40:57;99299.53;;;23.22
70969;BMP280;58630;43.022;25.100;2022-09-03T01:43:55;99310.88;;;23.22
70969;BMP280;58630;43.022;25.100;2022-09-03T01:46:40;99303.31;;;23.21
70969;BMP280;58630;43.022;25.100;2022-09-03T01:51:36;99308.59;;;23.21
70969;BMP280;58630;43.022;25.100;2022-09-03T01:54:07;99310.47;;;23.20
70969;BMP280;58630;43.022;25.100;2022-09-03T02:01:58;99305.50;;;23.19
70969;BMP280;58630;43.022;25.100;2022-09-03T02:04:26;99305.88;;;23.17
70969;BMP280;58630;43.022;25.100;2022-09-03T02:06:53;99308.53;;;23.17
70969;BMP280;58630;43.022;25.100;2022-09-03T02:09:20;99312.28;;;23.16
70969;BMP280;58630;43.022;25.100;2022-09-03T02:11:49;99308.09;;;23.15
70969;BMP280;58630;43.022;25.100;2022-09-03T02:14:17;99301.28;;;23.14
70969;BMP280;58630;43.022;25.100;2022-09-03T02:16:43;99307.69;;;23.13
70969;BMP280;58630;43.022;25.100;2022-09-03T02:19:10;99313.00;;;23.13
70969;BMP280;58630;43.022;25.100;2022-09-03T02:21:37;99306.91;;;23.13
70969;BMP280;58630;43.022;25.100;2022-09-03T02:24:02;99309.25;;;23.14
70969;BMP280;58630;43.022;25.100;2022-09-03T02:26:28;99301.97;;;23.11
70969;BMP280;58630;43.022;25.100;2022-09-03T02:28:54;99294.75;;;23.12
70969;BMP280;58630;43.022;25.100;2022-09-03T02:31:20;99319.75;;;23.11
70969;BMP280;58630;43.022;25.100;2022-09-03T02:33:46;99317.44;;;23.09
70969;BMP280;58630;43.022;25.100;2022-09-03T02:36:12;99316.66;;;23.09
70969;BMP280;58630;43.022;25.100;2022-09-03T02:38:39;99324.97;;;23.07
70969;BMP280;58630;43.022;25.100;2022-09-03T02:41:05;99321.88;;;23.05
70969;BMP280;58630;43.022;25.100;2022-09-03T02:46:23;99325.63;;;23.04
70969;BMP280;58630;43.022;25.100;2022-09-03T02:48:51;99320.34;;;23.04
70969;BMP280;58630;43.022;25.100;2022-09-03T02:51:17;99323.00;;;23.04
70969;BMP280;58630;43.022;25.100;2022-09-03T02:53:42;99316.59;;;23.05
70969;BMP280;58630;43.022;25.100;2022-09-03T02:56:07;99311.28;;;23.05
70969;BMP280;58630;43.022;25.100;2022-09-03T02:58:33;99300.28;;;23.03
70969;BMP280;58630;43.022;25.100;2022-09-03T03:00:59;99315.41;;;23.03
70969;BMP280;58630;43.022;25.100;2022-09-03T03:03:24;99296.88;;;23.03
70969;BMP280;58630;43.022;25.100;2022-09-03T03:05:50;99314.97;;;23.01
70969;BMP280;58630;43.022;25.100;2022-09-03T03:08:17;99311.56;;;23.00
70969;BMP280;58630;43.022;25.100;2022-09-03T03:10:45;99312.66;;;22.99
70969;BMP280;58630;43.022;25.100;2022-09-03T03:13:10;99308.16;;;23.00
70969;BMP280;58630;43.022;25.100;2022-09-03T03:15:36;99306.19;;;22.97
70969;BMP280;58630;43.022;25.100;2022-09-03T03:18:01;99308.91;;;23.00
70969;BMP280;58630;43.022;25.100;2022-09-03T03:20:26;99310.03;;;22.99
70969;BMP280;58630;43.022;25.100;2022-09-03T03:22:51;99305.81;;;22.98
70969;BMP280;58630;43.022;25.100;2022-09-03T03:25:17;99308.06;;;22.96
70969;BMP280;58630;43.022;25.100;2022-09-03T03:27:42;99304.66;;;22.96
70969;BMP280;58630;43.022;25.100;2022-09-03T03:30:08;99303.41;;;22.93
70969;BMP280;58630;43.022;25.100;2022-09-03T03:32:34;99310.63;;;22.93
70969;BMP280;58630;43.022;25.100;2022-09-03T03:35:00;99301.16;;;22.92
70969;BMP280;58630;43.022;25.100;2022-09-03T03:37:25;99300.34;;;22.91
70969;BMP280;58630;43.022;25.100;2022-09-03T03:39:50;99301.91;;;22.92
70969;BMP280;58630;43.022;25.100;2022-09-03T03:42:16;99308.31;;;22.91
70969;BMP280;58630;43.022;25.100;2022-09-03T03:44:41;99310.19;;;22.91
70969;BMP280;58630;43.022;25.100;2022-09-03T03:47:08;99309.41;;;22.90
70969;BMP280;58630;43.022;25.100;2022-09-03T03:49:33;99313.19;;;22.89
70969;BMP280;58630;43.022;25.100;2022-09-03T03:51:58;99307.13;;;22.89
70969;BMP280;58630;43.022;25.100;2022-09-03T03:54:24;99312.78;;;22.87
70969;BMP280;58630;43.022;25.100;2022-09-03T03:56:49;99305.19;;;22.86
70969;BMP280;58630;43.022;25.100;2022-09-03T03:59:14;99306.28;;;22.85
70969;BMP280;58630;43.022;25.100;2022-09-03T04:01:40;99305.53;;;22.84
70969;BMP280;58630;43.022;25.100;2022-09-03T04:04:05;99312.38;;;22.85
70969;BMP280;58630;43.022;25.100;2022-09-03T04:06:30;99315.03;;;22.85
70969;BMP280;58630;43.022;25.100;2022-09-03T04:08:55;99316.88;;;22.85
70969;BMP280;58630;43.022;25.100;2022-09-03T04:11:21;99323.22;;;22.80
70969;BMP280;58630;43.022;25.100;2022-09-03T04:13:47;99317.91;;;22.80
70969;BMP280;58630;43.022;25.100;2022-09-03T04:16:15;99316.03;;;22.81
70969;BMP280;58630;43.022;25.100;2022-09-03T04:18:42;99327.41;;;22.81
70969;BMP280;58630;43.022;25.100;2022-09-03T04:21:08;99336.47;;;22.80
70969;BMP280;58630;43.022;25.100;2022-09-03T04:23:35;99339.78;;;22.77
70969;BMP280;58630;43.022;25.100;2022-09-03T04:26:01;99340.09;;;22.76
70969;BMP280;58630;43.022;25.100;2022-09-03T04:28:26;99343.19;;;22.78
70969;BMP280;58630;43.022;25.100;2022-09-03T04:30:52;99342.06;;;22.79
70969;BMP280;58630;43.022;25.100;2022-09-03T04:33:17;99350.16;;;22.67
70969;BMP280;58630;43.022;25.100;2022-09-03T04:35:43;99357.47;;;22.74
70969;BMP280;58630;43.022;25.100;2022-09-03T04:38:08;99354.81;;;22.74
70969;BMP280;58630;43.022;25.100;2022-09-03T04:40:33;99357.47;;;22.74
70969;BMP280;58630;43.022;25.100;2022-09-03T04:42:59;99356.38;;;22.75
70969;BMP280;58630;43.022;25.100;2022-09-03T04:45:25;99353.72;;;22.75
70969;BMP280;58630;43.022;25.100;2022-09-03T04:48:00;99356.69;;;22.73
70969;BMP280;58630;43.022;25.100;2022-09-03T04:50:26;99364.63;;;22.73
70969;BMP280;58630;43.022;25.100;2022-09-03T04:52:52;99356.63;;;22.70
70969;BMP280;58630;43.022;25.100;2022-09-03T04:55:20;99370.28;;;22.72
70969;BMP280;58630;43.022;25.100;2022-09-03T04:57:46;99363.47;;;22.71
70969;BMP280;58630;43.022;25.100;2022-09-03T05:00:12;99369.09;;;22.69
70969;BMP280;58630;43.022;25.100;2022-09-03T05:02:37;99377.03;;;22.69
70969;BMP280;58630;43.022;25.100;2022-09-03T05:05:03;99376.25;;;22.69
70969;BMP280;58630;43.022;25.100;2022-09-03T05:07:28;99378.91;;;22.69
70969;BMP280;58630;43.022;25.100;2022-09-03T05:10:03;99379.69;;;22.69
70969;BMP280;58630;43.022;25.100;2022-09-03T05:12:29;99378.91;;;22.69
70969;BMP280;58630;43.022;25.100;2022-09-03T05:14:55;99376.63;;;22.67
70969;BMP280;58630;43.022;25.100;2022-09-03T05:17:20;99378.50;;;22.67
70969;BMP280;58630;43.022;25.100;2022-09-03T05:19:46;99383.78;;;22.67
70969;BMP280;58630;43.022;25.100;2022-09-03T05:22:11;99374.28;;;22.66
70969;BMP280;58630;43.022;25.100;2022-09-03T05:24:36;99380.69;;;22.65
70969;BMP280;58630;43.022;25.100;2022-09-03T05:27:01;99375.41;;;22.65
70969;BMP280;58630;43.022;25.100;2022-09-03T05:29:27;99377.31;;;22.64
70969;BMP280;58630;43.022;25.100;2022-09-03T05:31:52;99379.19;;;22.64
70969;BMP280;58630;43.022;25.100;2022-09-03T05:34:17;99378.41;;;22.63
70969;BMP280;58630;43.022;25.100;2022-09-03T05:36:43;99381.81;;;22.64
70969;BMP280;58630;43.022;25.100;2022-09-03T05:39:11;99379.97;;;22.64
70969;BMP280;58630;43.022;25.100;2022-09-03T05:41:36;99380.69;;;22.65
70969;BMP280;58630;43.022;25.100;2022-09-03T05:44:01;99396.59;;;22.65
70969;BMP280;58630;43.022;25.100;2022-09-03T05:46:31;99390.88;;;22.63
70969;BMP280;58630;43.022;25.100;2022-09-03T05:48:57;99391.22;;;22.61
70969;BMP280;58630;43.022;25.100;2022-09-03T05:51:23;99396.97;;;22.63
70969;BMP280;58630;43.022;25.100;2022-09-03T05:53:49;99395.41;;;22.62
70969;BMP280;58630;43.022;25.100;2022-09-03T05:56:18;99395.72;;;22.61
70969;BMP280;58630;43.022;25.100;2022-09-03T05:58:44;99406.22;;;22.57
70969;BMP280;58630;43.022;25.100;2022-09-03T06:01:14;99411.09;;;22.55
70969;BMP280;58630;43.022;25.100;2022-09-03T06:03:40;99419.13;;;22.59
70969;BMP280;58630;43.022;25.100;2022-09-03T06:06:06;99418.38;;;22.58
70969;BMP280;58630;43.022;25.100;2022-09-03T06:08:32;99411.19;;;22.59
70969;BMP280;58630;43.022;25.100;2022-09-03T06:10:57;99419.84;;;22.56
70969;BMP280;58630;43.022;25.100;2022-09-03T06:13:23;99419.84;;;22.56
70969;BMP280;58630;43.022;25.100;2022-09-03T06:15:48;99420.16;;;22.54
70969;BMP280;58630;43.022;25.100;2022-09-03T06:18:13;99423.41;;;22.48
70969;BMP280;58630;43.022;25.100;2022-09-03T06:20:39;99432.97;;;22.52
70969;BMP280;58630;43.022;25.100;2022-09-03T06:23:04;99429.56;;;22.52
70969;BMP280;58630;43.022;25.100;2022-09-03T06:25:29;99434.00;;;22.48
70969;BMP280;58630;43.022;25.100;2022-09-03T06:27:56;99435.97;;;22.51
70969;BMP280;58630;43.022;25.100;2022-09-03T06:30:21;99440.16;;;22.52
70969;BMP280;58630;43.022;25.100;2022-09-03T06:32:48;99439.38;;;22.51
70969;BMP280;58630;43.022;25.100;2022-09-03T06:35:16;99443.91;;;22.51
70969;BMP280;58630;43.022;25.100;2022-09-03T06:37:42;99442.38;;;22.50
70969;BMP280;58630;43.022;25.100;2022-09-03T06:40:08;99444.66;;;22.51
70969;BMP280;58630;43.022;25.100;2022-09-03T06:42:37;99446.81;;;22.46
70969;BMP280;58630;43.022;25.100;2022-09-03T06:45:03;99444.66;;;22.51
70969;BMP280;58630;43.022;25.100;2022-09-03T06:47:31;99446.22;;;22.52
70969;BMP280;58630;43.022;25.100;2022-09-03T06:49:57;99458.38;;;22.53
70969;BMP280;58630;43.022;25.100;2022-09-03T06:52:24;99455.59;;;22.50
70969;BMP280;58630;43.022;25.100;2022-09-03T06:54:49;99451.06;;;22.50
70969;BMP280;58630;43.022;25.100;2022-09-03T06:57:14;99456.38;;;22.50
70969;BMP280;58630;43.022;25.100;2022-09-03T06:59:40;99454.50;;;22.51
70969;BMP280;58630;43.022;25.100;2022-09-03T07:02:07;99461.34;;;22.52
70969;BMP280;58630;43.022;25.100;2022-09-03T07:04:32;99457.16;;;22.51
70969;BMP280;58630;43.022;25.100;2022-09-03T07:06:58;99464.41;;;22.54
70969;BMP280;58630;43.022;25.100;2022-09-03T07:09:24;99475.00;;;22.54
70969;BMP280;58630;43.022;25.100;2022-09-03T07:11:51;99471.16;;;22.51
70969;BMP280;58630;43.022;25.100;2022-09-03T07:14:17;99471.16;;;22.51
70969;BMP280;58630;43.022;25.100;2022-09-03T07:16:42;99478.78;;;22.53
70969;BMP280;58630;43.022;25.100;2022-09-03T07:19:08;99479.53;;;22.53
70969;BMP280;58630;43.022;25.100;2022-09-03T07:21:34;99477.25;;;22.52
70969;BMP280;58630;43.022;25.100;2022-09-03T07:24:05;99474.25;;;22.53
70969;BMP280;58630;43.022;25.100;2022-09-03T07:26:34;99478.00;;;22.52
70969;BMP280;58630;43.022;25.100;2022-09-03T07:29:00;99480.31;;;22.54
70969;BMP280;58630;43.022;25.100;2022-09-03T07:31:26;99484.41;;;22.51
70969;BMP280;58630;43.022;25.100;2022-09-03T07:33:53;99481.84;;;22.55
70969;BMP280;58630;43.022;25.100;2022-09-03T07:36:20;99486.38;;;22.54
70969;BMP280;58630;43.022;25.100;2022-09-03T07:38:45;99479.44;;;22.50
70969;BMP280;58630;43.022;25.100;2022-09-03T07:41:11;99492.44;;;22.55
70969;BMP280;58630;43.022;25.100;2022-09-03T07:43:37;99497.63;;;22.51
70969;BMP280;58630;43.022;25.100;2022-09-03T07:46:08;99499.19;;;22.52
70969;BMP280;58630;43.022;25.100;2022-09-03T07:48:35;99499.19;;;22.52
70969;BMP280;58630;43.022;25.100;2022-09-03T07:51:01;99502.16;;;22.51
70969;BMP280;58630;43.022;25.100;2022-09-03T07:53:27;99502.63;;;22.53
70969;BMP280;58630;43.022;25.100;2022-09-03T07:55:53;99496.53;;;22.52
70969;BMP280;58630;43.022;25.100;2022-09-03T07:58:18;99499.97;;;22.53
70969;BMP280;58630;43.022;25.100;2022-09-03T08:00:47;99502.16;;;22.51
70969;BMP280;58630;43.022;25.100;2022-09-03T08:03:13;99502.94;;;22.51
70969;BMP280;58630;43.022;25.100;2022-09-03T08:05:38;99499.19;;;22.52
70969;BMP280;58630;43.022;25.100;2022-09-03T08:08:04;99496.19;;;22.54
70969;BMP280;58630;43.022;25.100;2022-09-03T08:10:29;99495.31;;;22.50
70969;BMP280;58630;43.022;25.100;2022-09-03T08:12:56;99502.16;;;22.51
70969;BMP280;58630;43.022;25.100;2022-09-03T08:15:21;99501.75;;;22.49
70969;BMP280;58630;43.022;25.100;2022-09-03T08:17:46;99496.44;;;22.49
70969;BMP280;58630;43.022;25.100;2022-09-03T08:20:12;99495.78;;;22.52
70969;BMP280;58630;43.022;25.100;2022-09-03T08:22:37;99501.63;;;22.45
70969;BMP280;58630;43.022;25.100;2022-09-03T08:25:02;99490.78;;;22.50
70969;BMP280;58630;43.022;25.100;2022-09-03T08:27:28;99500.63;;;22.50
70969;BMP280;58630;43.022;25.100;2022-09-03T08:29:54;99501.50;;;22.54
70969;BMP280;58630;43.022;25.100;2022-09-03T08:32:19;99492.44;;;22.55
70969;BMP280;58630;43.022;25.100;2022-09-03T08:34:44;99505.28;;;22.53
70969;BMP280;58630;43.022;25.100;2022-09-03T08:37:10;99489.38;;;22.53
70969;BMP280;58630;43.022;25.100;2022-09-03T08:39:37;99491.25;;;22.52
70969;BMP280;58630;43.022;25.100;2022-09-03T08:49:51;99481.66;;;22.48
70969;BMP280;58630;43.022;25.100;2022-09-03T08:52:30;99490.03;;;22.50
70969;BMP280;58630;43.022;25.100;2022-09-03T08:57:48;99492.34;;;22.51
70969;BMP280;58630;43.022;25.100;2022-09-03T09:00:14;99499.19;;;22.52
70969;BMP280;58630;43.022;25.100;2022-09-03T09:02:54;99496.19;;;22.54
70969;BMP280;58630;43.022;25.100;2022-09-03T09:05:24;99502.16;;;22.51
70969;BMP280;58630;43.022;25.100;2022-09-03T09:13:21;99498.44;;;22.52
70969;BMP280;58630;43.022;25.100;2022-09-03T09:16:02;99491.91;;;22.49
70969;BMP280;58630;43.022;25.100;2022-09-03T09:18:42;99495.66;;;22.48
70969;BMP280;58630;43.022;25.100;2022-09-03T09:23:47;99503.94;;;22.47
70969;BMP280;58630;43.022;25.100;2022-09-03T09:26:14;99493.81;;;22.49
70969;BMP280;58630;43.022;25.100;2022-09-03T09:28:40;99505.91;;;22.50
70969;BMP280;58630;43.022;25.100;2022-09-03T09:31:06;99513.09;;;22.49
70969;BMP280;58630;43.022;25.100;2022-09-03T09:33:33;99511.22;;;22.50
70969;BMP280;58630;43.022;25.100;2022-09-03T09:36:06;99509.69;;;22.49
70969;BMP280;58630;43.022;25.100;2022-09-03T09:38:34;99518.06;;;22.51
70969;BMP280;58630;43.022;25.100;2022-09-03T09:41:15;99505.81;;;22.46
70969;BMP280;58630;43.022;25.100;2022-09-03T09:43:41;99511.66;;;22.52
70969;BMP280;58630;43.022;25.100;2022-09-03T09:46:13;99503.72;;;22.52
70969;BMP280;58630;43.022;25.100;2022-09-03T09:48:57;99512.75;;;22.51
70969;BMP280;58630;43.022;25.100;2022-09-03T09:51:26;99515.88;;;22.53
70969;BMP280;58630;43.022;25.100;2022-09-03T09:56:32;99515.75;;;22.49
70969;BMP280;58630;43.022;25.100;2022-09-03T09:59:01;99523.81;;;22.53
70969;BMP280;58630;43.022;25.100;2022-09-03T10:01:27;99520.72;;;22.51
70969;BMP280;58630;43.022;25.100;2022-09-03T10:03:55;99527.22;;;22.53
70969;BMP280;58630;43.022;25.100;2022-09-03T10:06:28;99525.78;;;22.56
70969;BMP280;58630;43.022;25.100;2022-09-03T10:09:16;99528.44;;;22.56
70969;BMP280;58630;43.022;25.100;2022-09-03T10:14:35;99529.63;;;22.58
70969;BMP280;58630;43.022;25.100;2022-09-03T10:17:21;99527.72;;;22.59
70969;BMP280;58630;43.022;25.100;2022-09-03T10:22:38;99525.50;;;22.61
70969;BMP280;58630;43.022;25.100;2022-09-03T10:25:06;99533.03;;;22.59
70969;BMP280;58630;43.022;25.100;2022-09-03T10:27:33;99529.69;;;22.62
70969;BMP280;58630;43.022;25.100;2022-09-03T10:30:01;99540.41;;;22.65
70969;BMP280;58630;43.022;25.100;2022-09-03T10:32:38;99534.69;;;22.63
70969;BMP280;58630;43.022;25.100;2022-09-03T10:35:11;99526.06;;;22.66
70969;BMP280;58630;43.022;25.100;2022-09-03T10:40:39;99535.44;;;22.64
70969;BMP280;58630;43.022;25.100;2022-09-03T11:00:38;99542.03;;;22.70
70969;BMP280;58630;43.022;25.100;2022-09-03T11:10:54;99548.22;;;22.74
70969;BMP280;58630;43.022;25.100;2022-09-03T11:13:22;99542.25;;;22.77
70969;BMP280;58630;43.022;25.100;2022-09-03T11:15:58;99541.03;;;22.74
70969;BMP280;58630;43.022;25.100;2022-09-03T11:18:30;99537.63;;;22.74
70969;BMP280;58630;43.022;25.100;2022-09-03T11:21:00;99538.78;;;22.76
70969;BMP280;58630;43.022;25.100;2022-09-03T11:23:29;99543.78;;;22.77
70969;BMP280;58630;43.022;25.100;2022-09-03T11:25:56;99555.94;;;22.78
70969;BMP280;58630;43.022;25.100;2022-09-03T11:33:43;99555.94;;;22.78
70969;BMP280;58630;43.022;25.100;2022-09-03T11:36:09;99562.41;;;22.81
70969;BMP280;58630;43.022;25.100;2022-09-03T11:38:36;99540.03;;;22.78
70969;BMP280;58630;43.022;25.100;2022-09-03T11:43:32;99541.34;;;22.84
70969;BMP280;58630;43.022;25.100;2022-09-03T11:46:01;99552.34;;;22.86
70969;BMP280;58630;43.022;25.100;2022-09-03T11:50:53;99551.59;;;22.86
70969;BMP280;58630;43.022;25.100;2022-09-03T11:55:54;99549.44;;;22.91
70969;BMP280;58630;43.022;25.100;2022-09-03T12:00:44;99549.56;;;22.95
70969;BMP280;58630;43.022;25.100;2022-09-03T12:03:11;99555.63;;;22.95
70969;BMP280;58630;43.022;25.100;2022-09-03T12:08:40;99554.25;;;23.01
70969;BMP280;58630;43.022;25.100;2022-09-03T12:13:48;99549.81;;;23.05
70969;BMP280;58630;43.022;25.100;2022-09-03T12:18:49;99546.84;;;23.07
70969;BMP280;58630;43.022;25.100;2022-09-03T12:21:17;99536.22;;;23.07
70969;BMP280;58630;43.022;25.100;2022-09-03T12:23:46;99549.91;;;23.09
70969;BMP280;58630;43.022;25.100;2022-09-03T12:26:20;99545.84;;;23.11
70969;BMP280;58630;43.022;25.100;2022-09-03T12:28:51;99553.78;;;23.11
70969;BMP280;58630;43.022;25.100;2022-09-03T12:31:18;99550.34;;;23.11
70969;BMP280;58630;43.022;25.100;2022-09-03T12:33:52;99552.25;;;23.10
70969;BMP280;58630;43.022;25.100;2022-09-03T12:36:18;99554.91;;;23.10
70969;BMP280;58630;43.022;25.100;2022-09-03T12:38:44;99556.44;;;23.11
70969;BMP280;58630;43.022;25.100;2022-09-03T12:41:21;99562.84;;;23.10
70969;BMP280;58630;43.022;25.100;2022-09-03T12:43:50;99557.84;;;23.09
70969;BMP280;58630;43.022;25.100;2022-09-03T12:46:16;99563.16;;;23.09
70969;BMP280;58630;43.022;25.100;2022-09-03T12:51:26;99561.38;;;23.13
70969;BMP280;58630;43.022;25.100;2022-09-03T12:53:54;99555.75;;;23.14
70969;BMP280;58630;43.022;25.100;2022-09-03T12:56:20;99558.41;;;23.14
70969;BMP280;58630;43.022;25.100;2022-09-03T12:58:54;99562.16;;;23.13
70969;BMP280;58630;43.022;25.100;2022-09-03T13:01:26;99561.97;;;23.06
70969;BMP280;58630;43.022;25.100;2022-09-03T13:06:22;99560.19;;;23.10
70969;BMP280;58630;43.022;25.100;2022-09-03T13:08:49;99555.31;;;23.12
70969;BMP280;58630;43.022;25.100;2022-09-03T13:11:16;99561.75;;;23.11
70969;BMP280;58630;43.022;25.100;2022-09-03T13:13:59;99554.44;;;23.08
70969;BMP280;58630;43.022;25.100;2022-09-03T13:24:25;99566.78;;;23.16
70969;BMP280;58630;43.022;25.100;2022-09-03T13:31:47;99559.59;;;23.17
70969;BMP280;58630;43.022;25.100;2022-09-03T13:34:21;99559.50;;;23.13
70969;BMP280;58630;43.022;25.100;2022-09-03T13:39:31;99551.31;;;23.18
70969;BMP280;58630;43.022;25.100;2022-09-03T13:42:05;99565.91;;;23.12
70969;BMP280;58630;43.022;25.100;2022-09-03T13:52:40;99565.22;;;23.15
70969;BMP280;58630;43.022;25.100;2022-09-03T13:55:08;99571.28;;;23.16
70969;BMP280;58630;43.022;25.100;2022-09-03T14:00:23;99566.38;;;23.14
70969;BMP280;58630;43.022;25.100;2022-09-03T14:08:00;99567.88;;;23.15
70969;BMP280;58630;43.022;25.100;2022-09-03T14:15:59;99562.16;;;23.13
70969;BMP280;58630;43.022;25.100;2022-09-03T14:18:34;99572.34;;;23.11
70969;BMP280;58630;43.022;25.100;2022-09-03T14:21:03;99568.16;;;23.10
70969;BMP280;58630;43.022;25.100;2022-09-03T14:23:52;99565.91;;;23.12
70969;BMP280;58630;43.022;25.100;2022-09-03T14:26:16;99571.91;;;23.09
70969;BMP280;58630;43.022;25.100;2022-09-03T14:28:46;99569.69;;;23.11
70969;BMP280;58630;43.022;25.100;2022-09-03T14:34:03;99551.88;;;23.12
70969;BMP280;58630;43.022;25.100;2022-09-03T14:36:42;99547.69;;;23.11
70969;BMP280;58630;43.022;25.100;2022-09-03T14:39:16;99562.84;;;23.10
70969;BMP280;58630;43.022;25.100;2022-09-03T14:44:26;99560.88;;;23.07
70969;BMP280;58630;43.022;25.100;2022-09-03T15:05:08;99572.34;;;23.11
70969;BMP280;58630;43.022;25.100;2022-09-03T15:12:54;99585.16;;;23.09
70969;BMP280;58630;43.022;25.100;2022-09-03T15:15:23;99581.28;;;23.07
70969;BMP280;58630;43.022;25.100;2022-09-03T15:18:03;99577.50;;;23.08
70969;BMP280;58630;43.022;25.100;2022-09-03T15:23:18;99583.94;;;23.07
70969;BMP280;58630;43.022;25.100;2022-09-03T15:28:43;99590.03;;;23.07
70969;BMP280;58630;43.022;25.100;2022-09-03T15:31:19;99589.59;;;23.05
70969;BMP280;58630;43.022;25.100;2022-09-03T15:36:14;99577.09;;;23.06
70969;BMP280;58630;43.022;25.100;2022-09-03T15:38:49;99585.03;;;23.06
70969;BMP280;58630;43.022;25.100;2022-09-03T15:41:30;99586.94;;;23.05
70969;BMP280;58630;43.022;25.100;2022-09-03T15:43:58;99591.13;;;23.06
70969;BMP280;58630;43.022;25.100;2022-09-03T15:46:34;99587.69;;;23.06
70969;BMP280;58630;43.022;25.100;2022-09-03T15:49:02;99587.69;;;23.06
70969;BMP280;58630;43.022;25.100;2022-09-03T15:51:29;99599.75;;;23.03
70969;BMP280;58630;43.022;25.100;2022-09-03T15:56:24;99606.94;;;23.03
70969;BMP280;58630;43.022;25.100;2022-09-03T16:06:59;99610.38;;;23.03
70969;BMP280;58630;43.022;25.100;2022-09-03T16:17:29;99600.53;;;23.04
70969;BMP280;58630;43.022;25.100;2022-09-03T16:20:03;99606.16;;;23.02
70969;BMP280;58630;43.022;25.100;2022-09-03T16:22:38;99616.44;;;23.04
70969;BMP280;58630;43.022;25.100;2022-09-03T16:27:33;99609.91;;;23.01
70969;BMP280;58630;43.022;25.100;2022-09-03T16:37:49;99607.19;;;22.98
70969;BMP280;58630;43.022;25.100;2022-09-03T16:40:32;99612.47;;;22.98
70969;BMP280;58630;43.022;25.100;2022-09-03T16:56:10;99619.22;;;22.95
70969;BMP280;58630;43.022;25.100;2022-09-03T17:01:21;99628.28;;;22.94
70969;BMP280;58630;43.022;25.100;2022-09-03T17:06:43;99630.50;;;22.92
70969;BMP280;58630;43.022;25.100;2022-09-03T17:09:26;99628.94;;;22.91
70969;BMP280;58630;43.022;25.100;2022-09-03T17:12:06;99626.28;;;22.91
70969;BMP280;58630;43.022;25.100;2022-09-03T17:14:55;99632.00;;;22.93
70969;BMP280;58630;43.022;25.100;2022-09-03T17:24:50;99648.59;;;22.90
70969;BMP280;58630;43.022;25.100;2022-09-03T17:27:42;99649.03;;;22.92
70969;BMP280;58630;43.022;25.100;2022-09-03T17:37:59;99666.84;;;22.92
70969;BMP280;58630;43.022;25.100;2022-09-03T17:40:44;99669.78;;;22.90
70969;BMP280;58630;43.022;25.100;2022-09-03T17:53:21;99681.78;;;22.84
70969;BMP280;58630;43.022;25.100;2022-09-03T17:56:01;99685.97;;;22.85
70969;BMP280;58630;43.022;25.100;2022-09-03T18:01:05;99686.72;;;22.86
70969;BMP280;58630;43.022;25.100;2022-09-03T18:06:10;99694.22;;;22.84
70969;BMP280;58630;43.022;25.100;2022-09-03T18:18:46;99695.00;;;22.84
70969;BMP280;58630;43.022;25.100;2022-09-03T18:21:16;99698.34;;;22.81
70969;BMP280;58630;43.022;25.100;2022-09-03T18:27:21;99698.75;;;22.83
70969;BMP280;58630;43.022;25.100;2022-09-03T18:30:10;99703.94;;;22.80
70969;BMP280;58630;43.022;25.100;2022-09-03T18:32:55;99711.13;;;22.79
70969;BMP280;58630;43.022;25.100;2022-09-03T18:35:39;99705.84;;;22.79
70969;BMP280;58630;43.022;25.100;2022-09-03T18:38:26;99707.38;;;22.80
70969;BMP280;58630;43.022;25.100;2022-09-03T18:50:23;99724.72;;;22.78
70969;BMP280;58630;43.022;25.100;2022-09-03T18:53:13;99721.31;;;22.77
70969;BMP280;58630;43.022;25.100;2022-09-03T18:59:15;99724.63;;;22.75
70969;BMP280;58630;43.022;25.100;2022-09-03T19:02:06;99723.50;;;22.76
70969;BMP280;58630;43.022;25.100;2022-09-03T19:05:00;99717.09;;;22.77
70969;BMP280;58630;43.022;25.100;2022-09-03T19:07:54;99717.09;;;22.77
70969;BMP280;58630;43.022;25.100;2022-09-03T19:10:49;99718.53;;;22.74
70969;BMP280;58630;43.022;25.100;2022-09-03T19:13:35;99721.50;;;22.73
70969;BMP280;58630;43.022;25.100;2022-09-03T19:22:18;99732.88;;;22.73
70969;BMP280;58630;43.022;25.100;2022-09-03T19:25:04;99736.75;;;22.76
70969;BMP280;58630;43.022;25.100;2022-09-03T19:33:25;99725.25;;;22.72